Time;durP1;ratioP1;P1;durP2;ratioP2;P2;SDS_P1;SDS_P2;PMS_P1;PMS_P2;Temp;Humidity;BMP_temperature;BMP_pressure;BME280_temperature;BME280_humidity;BME280_pressure;Samples;Min_cycle;Max_cycle;Signal;HPM_P1;HPM_P2
2022/10/13 00:01:46;;;;;;;20.13;10.15;;;;;;;10.94;68.61;100829.09;10391818;28;20033;-91
2022/10/13 00:06:48;;;;;;;18.75;10.38;;;;;;;11.02;68.73;100843.41;10386536;28;20045;-91
2022/10/13 00:28:40;;;;;;;84.78;16.73;;;;;;;11.24;69.31;100843.78;10349417;28;20062;-90
2022/10/13 00:39:07;;;;;;;83.10;16.25;;;;;;;11.35;69.32;100847.97;10281182;28;20051;-90
2022/10/13 00:44:46;;;;;;;113.63;18.83;;;;;;;11.36;69.67;100842.41;10260059;28;20046;-90
2022/10/13 01:13:11;;;;;;;164.40;21.83;;;;;;;11.57;70.07;100833.81;10362674;28;20110;-90
2022/10/13 01:18:19;;;;;;;115.00;16.75;;;;;;;11.62;70.21;100833.28;10370647;28;20118;-90
2022/10/13 01:28:54;;;;;;;134.63;18.23;;;;;;;11.49;71.28;100844.56;10872214;23;20037;-91
2022/10/13 01:39:15;;;;;;;50.72;16.25;;;;;;;11.57;71.43;100823.06;10779538;23;20045;-90
2022/10/13 01:55:05;;;;;;;203.98;20.40;;;;;;;11.67;71.20;100821.00;10418964;28;20101;-88
2022/10/13 02:00:13;;;;;;;179.30;21.10;;;;;;;11.76;71.45;100818.28;10385622;28;20085;-89
2022/10/13 02:05:24;;;;;;;125.95;19.20;;;;;;;11.80;71.89;100815.06;10383562;28;20088;-90
2022/10/13 02:10:46;;;;;;;403.00;27.67;;;;;;;11.91;71.32;100805.81;10423543;28;20050;-90
2022/10/13 02:15:55;;;;;;;149.73;19.38;;;;;;;11.98;71.39;100801.41;10406936;28;20068;-90
2022/10/13 02:20:58;;;;;;;154.27;19.38;;;;;;;12.03;71.43;100803.59;10529957;23;20038;-91
2022/10/13 02:31:16;;;;;;;237.25;22.38;;;;;;;11.98;71.62;100785.25;10121864;23;20099;-67
2022/10/13 02:36:18;;;;;;;185.68;22.40;;;;;;;12.02;71.84;100783.88;10415601;28;20050;-68
2022/10/13 02:41:19;;;;;;;201.00;22.15;;;;;;;12.06;71.92;100787.06;10412050;28;20065;-67
2022/10/13 02:46:20;;;;;;;116.18;19.20;;;;;;;12.10;71.61;100783.00;10427790;28;20033;-67
2022/10/13 02:51:22;;;;;;;129.07;20.35;;;;;;;12.19;71.67;100775.75;10405152;28;20045;-67
2022/10/13 02:56:23;;;;;;;65.07;19.27;;;;;;;12.26;71.81;100776.69;10421068;28;20065;-66
2022/10/13 03:01:26;;;;;;;92.00;18.63;;;;;;;12.32;71.75;100770.59;10419583;28;20034;-66
2022/10/13 03:06:27;;;;;;;163.25;19.77;;;;;;;12.18;71.62;100782.13;10440806;23;20041;-66
2022/10/13 03:11:29;;;;;;;86.10;19.10;;;;;;;12.06;72.31;100776.28;10412927;28;20041;-67
2022/10/13 03:16:30;;;;;;;97.22;18.55;;;;;;;12.12;72.28;100777.44;10429744;28;20038;-67
2022/10/13 03:21:32;;;;;;;134.35;20.63;;;;;;;12.18;72.14;100776.72;10429070;28;20040;-67
2022/10/13 03:26:34;;;;;;;92.90;19.42;;;;;;;12.20;71.87;100772.84;10413695;28;20049;-67
2022/10/13 03:31:35;;;;;;;85.70;18.63;;;;;;;12.27;71.55;100770.28;10390670;28;20038;-67
2022/10/13 03:36:36;;;;;;;104.65;19.17;;;;;;;12.30;72.06;100767.22;10412683;28;20063;-67
2022/10/13 03:41:38;;;;;;;123.90;20.17;;;;;;;12.28;72.21;100769.25;10430049;28;20034;-66
2022/10/13 03:46:39;;;;;;;224.13;21.55;;;;;;;12.24;71.83;100763.41;10426500;28;20046;-66
2022/10/13 03:51:40;;;;;;;96.82;18.05;;;;;;;12.22;72.14;100765.44;10416732;28;20049;-67
2022/10/13 03:56:42;;;;;;;84.40;16.95;;;;;;;12.09;72.26;100778.66;10421689;28;20031;-66
2022/10/13 04:01:43;;;;;;;85.07;20.38;;;;;;;12.10;71.74;100781.16;10421904;28;20046;-66
2022/10/13 04:06:45;;;;;;;112.68;19.80;;;;;;;12.18;72.21;100782.13;10424629;28;20079;-66
2022/10/13 04:11:51;;;;;;;106.63;19.15;;;;;;;12.15;72.15;100780.63;10415207;28;20153;-66
2022/10/13 04:16:52;;;;;;;57.70;18.80;;;;;;;12.15;71.98;100779.81;10419084;28;20056;-67
2022/10/13 04:21:54;;;;;;;53.90;16.35;;;;;;;12.19;72.25;100771.19;10425836;28;20037;-66
2022/10/13 04:26:55;;;;;;;61.05;17.45;;;;;;;12.19;71.91;100781.97;10411194;28;20038;-67
2022/10/13 04:31:58;;;;;;;69.80;16.70;;;;;;;12.06;72.13;100782.50;10405135;28;20052;-68
2022/10/13 04:37:00;;;;;;;45.38;16.05;;;;;;;12.07;71.87;100786.91;10415896;28;20033;-68
2022/10/13 04:42:01;;;;;;;50.05;18.05;;;;;;;12.09;71.97;100784.88;10411828;28;20053;-68
2022/10/13 04:47:02;;;;;;;42.47;16.50;;;;;;;12.14;72.11;100772.72;10411789;28;20053;-70
2022/10/13 04:52:04;;;;;;;41.95;17.88;;;;;;;12.20;71.86;100783.63;10396917;28;20041;-69
2022/10/13 04:57:05;;;;;;;61.80;18.85;;;;;;;12.25;71.99;100775.03;10416656;28;20060;-68
2022/10/13 05:02:08;;;;;;;40.83;17.95;;;;;;;12.26;71.92;100766.78;10387424;28;20053;-69
2022/10/13 05:07:09;;;;;;;35.10;17.42;;;;;;;12.27;72.04;100763.03;10399219;28;20042;-68
2022/10/13 05:12:18;;;;;;;32.67;17.52;;;;;;;12.33;72.24;100764.19;10393684;28;20465;-71
2022/10/13 05:17:20;;;;;;;37.47;16.98;;;;;;;12.37;72.47;100754.72;10367361;28;20057;-69
2022/10/13 05:22:21;;;;;;;31.75;16.45;;;;;;;12.40;71.82;100740.91;10395643;28;21133;-69
2022/10/13 05:27:23;;;;;;;29.58;15.85;;;;;;;12.44;72.10;100739.53;10400829;28;20104;-66
2022/10/13 05:32:24;;;;;;;32.53;17.23;;;;;;;12.45;72.21;100745.75;10382301;28;20046;-72
2022/10/13 05:37:26;;;;;;;33.72;18.13;;;;;;;12.48;71.98;100738.16;10379500;28;20559;-69
2022/10/13 05:42:28;;;;;;;33.10;16.73;;;;;;;12.53;71.99;100734.09;10377108;28;20500;-60
2022/10/13 05:47:30;;;;;;;29.27;16.08;;;;;;;12.53;71.83;100739.47;10340646;28;20047;-60
2022/10/13 05:52:32;;;;;;;32.17;16.10;;;;;;;12.49;71.71;100742.50;10367776;28;20053;-61
2022/10/13 05:57:41;;;;;;;37.30;17.45;;;;;;;12.54;71.74;100733.91;10365857;28;20112;-60
2022/10/13 06:02:51;;;;;;;40.15;16.48;;;;;;;12.54;72.15;100733.03;10372009;28;20044;-62
2022/10/13 06:07:54;;;;;;;37.83;16.98;;;;;;;12.64;71.75;100722.88;10366962;28;20053;-61
2022/10/13 06:12:55;;;;;;;60.42;18.73;;;;;;;12.66;71.64;100729.75;10375564;28;20076;-60
2022/10/13 06:17:57;;;;;;;47.25;18.55;;;;;;;12.55;71.97;100732.03;10339837;28;20058;-63
2022/10/13 06:22:59;;;;;;;56.53;17.30;;;;;;;12.22;72.90;100734.94;10358882;28;20055;-63
2022/10/13 06:28:01;;;;;;;56.28;19.45;;;;;;;12.20;73.09;100735.09;10378661;28;20137;-60
2022/10/13 06:33:02;;;;;;;56.80;19.33;;;;;;;12.30;72.87;100745.66;10380786;28;20112;-61
2022/10/13 06:38:03;;;;;;;55.45;18.13;;;;;;;12.21;73.32;100749.44;10361394;28;20133;-62
2022/10/13 06:43:05;;;;;;;56.63;20.25;;;;;;;12.37;72.65;100745.81;10361625;28;20065;-62
2022/10/13 06:48:06;;;;;;;55.63;17.38;;;;;;;12.33;72.81;100744.50;10379310;28;20046;-63
2022/10/13 06:53:08;;;;;;;57.45;18.73;;;;;;;12.45;72.60;100748.44;10369495;28;20128;-61
2022/10/13 06:58:10;;;;;;;57.00;19.33;;;;;;;12.16;73.33;100757.22;10355802;28;20077;-62
2022/10/13 07:03:11;;;;;;;53.15;20.83;;;;;;;12.19;73.55;100746.91;10367999;28;20073;-63
2022/10/13 07:08:12;;;;;;;72.25;20.13;;;;;;;12.14;73.46;100737.69;10352161;28;20060;-60
2022/10/13 07:13:14;;;;;;;62.47;21.42;;;;;;;12.40;72.61;100743.59;10349167;28;20069;-63
2022/10/13 07:18:15;;;;;;;58.30;21.35;;;;;;;12.44;72.97;100735.97;10348700;28;20077;-61
2022/10/13 07:23:17;;;;;;;66.18;22.17;;;;;;;12.57;72.65;100747.00;10375033;28;20485;-61
2022/10/13 07:28:18;;;;;;;59.40;21.70;;;;;;;12.76;72.45;100740.31;10377015;28;20081;-61
2022/10/13 07:33:19;;;;;;;54.90;21.50;;;;;;;12.94;71.95;100728.38;10369415;28;20037;-60
2022/10/13 07:38:21;;;;;;;51.35;19.83;;;;;;;13.06;72.46;100724.22;10378569;28;20568;-62
2022/10/13 07:43:22;;;;;;;50.78;20.45;;;;;;;13.24;72.16;100722.00;10369589;28;20050;-60
2022/10/13 07:48:25;;;;;;;41.65;19.60;;;;;;;13.38;71.79;100716.81;10361696;28;20120;-62
2022/10/13 07:53:26;;;;;;;41.53;19.27;;;;;;;13.52;71.59;100715.97;10369675;28;20066;-61
2022/10/13 07:58:28;;;;;;;45.65;20.08;;;;;;;13.62;71.64;100718.41;10376405;28;20411;-62
2022/10/13 08:03:30;;;;;;;45.65;18.23;;;;;;;13.64;71.48;100721.75;10368077;28;20070;-62
2022/10/13 08:08:32;;;;;;;51.45;18.85;;;;;;;13.72;70.97;100732.47;10357018;28;20089;-60
2022/10/13 08:13:34;;;;;;;51.22;19.70;;;;;;;13.78;70.86;100729.00;10372008;28;20050;-60
2022/10/13 08:18:35;;;;;;;56.55;22.77;;;;;;;13.84;71.18;100743.63;10368883;28;20044;-62
2022/10/13 08:23:37;;;;;;;47.38;20.70;;;;;;;13.92;70.86;100730.06;10371295;28;20109;-61
2022/10/13 08:28:38;;;;;;;52.72;22.30;;;;;;;14.01;70.45;100723.50;10359600;28;20073;-61
2022/10/13 08:33:50;;;;;;;49.97;24.17;;;;;;;14.06;70.43;100714.84;10374601;28;20038;-65
2022/10/13 08:38:54;;;;;;;48.63;21.80;;;;;;;14.13;70.38;100718.44;10363076;28;20053;-63
2022/10/13 08:44:03;;;;;;;43.05;19.92;;;;;;;14.27;70.45;100704.03;10349603;28;20118;-61
2022/10/13 08:49:24;;;;;;;39.13;17.40;;;;;;;14.43;70.04;100688.59;10360382;28;20435;-65
2022/10/13 08:54:26;;;;;;;46.50;17.95;;;;;;;14.55;69.85;100710.56;10375446;28;20120;-63
2022/10/13 08:59:28;;;;;;;39.30;18.00;;;;;;;14.61;69.99;100702.53;10359929;28;20428;-61
2022/10/13 09:04:40;;;;;;;36.95;18.13;;;;;;;14.60;70.24;100721.66;10374057;28;20382;-62
2022/10/13 09:09:42;;;;;;;36.90;18.95;;;;;;;14.76;69.64;100720.56;10395796;28;20049;-67
2022/10/13 09:15:00;;;;;;;36.33;17.95;;;;;;;14.91;69.46;100715.94;10376975;28;20042;-65
2022/10/13 09:20:23;;;;;;;43.75;17.00;;;;;;;14.86;69.39;100724.59;10397059;28;20060;-69
2022/10/13 09:25:24;;;;;;;32.10;16.92;;;;;;;15.01;68.92;100715.59;10397561;28;20100;-64
2022/10/13 09:30:41;;;;;;;37.53;17.63;;;;;;;14.90;69.20;100711.53;10397036;28;20050;-66
2022/10/13 09:35:45;;;;;;;34.92;18.27;;;;;;;14.98;69.08;100710.56;10384322;28;20050;-65
2022/10/13 09:41:03;;;;;;;41.42;18.63;;;;;;;15.03;69.01;100718.94;10383485;28;20057;-66
2022/10/13 09:46:22;;;;;;;32.60;17.58;;;;;;;15.05;68.74;100712.28;10397590;28;20049;-66
2022/10/13 09:51:55;;;;;;;37.72;17.73;;;;;;;15.16;68.70;100707.34;10383667;28;20041;-64
2022/10/13 09:57:01;;;;;;;39.53;18.60;;;;;;;15.20;68.66;100697.78;10344983;28;20278;-68
2022/10/13 10:02:11;;;;;;;39.65;18.90;;;;;;;15.24;68.41;100708.06;10369333;28;20074;-68
2022/10/13 10:07:24;;;;;;;36.35;17.88;;;;;;;15.28;68.40;100703.06;10359805;28;20434;-69
2022/10/13 10:12:29;;;;;;;31.85;18.02;;;;;;;15.38;68.03;100697.28;10359847;28;20069;-70
2022/10/13 10:17:51;;;;;;;34.00;17.25;;;;;;;15.49;67.80;100695.91;10372810;28;20073;-70
2022/10/13 10:22:55;;;;;;;41.78;19.15;;;;;;;15.60;67.58;100692.59;10362651;28;20137;-70
2022/10/13 10:28:34;;;;;;;38.30;18.40;;;;;;;15.70;67.71;100681.41;10366497;28;20174;-71
2022/10/13 10:34:05;;;;;;;39.83;19.17;;;;;;;16.06;67.22;100683.88;10362316;28;20181;-70
2022/10/13 10:39:18;;;;;;;38.53;17.00;;;;;;;16.24;67.14;100664.31;10344614;28;20041;-70
2022/10/13 10:44:35;;;;;;;51.55;21.98;;;;;;;16.30;66.97;100646.38;10362328;28;20076;-70
2022/10/13 10:49:38;;;;;;;43.73;22.30;;;;;;;16.36;66.71;100657.22;10360204;28;20056;-69
2022/10/13 10:54:54;;;;;;;46.63;22.48;;;;;;;16.34;66.73;100648.47;10363527;28;20096;-69
2022/10/13 11:00:12;;;;;;;38.67;19.95;;;;;;;16.35;66.29;100649.28;10332392;28;20046;-70
2022/10/13 11:05:15;;;;;;;35.55;19.38;;;;;;;16.39;66.45;100648.69;10383759;28;20062;-71
2022/10/13 11:10:20;;;;;;;33.10;19.70;;;;;;;16.34;66.59;100636.78;10360257;28;20053;-72
2022/10/13 11:15:27;;;;;;;38.65;19.35;;;;;;;16.63;65.77;100627.41;10373676;28;20046;-72
2022/10/13 11:20:34;;;;;;;;;;;;;;;16.43;66.40;100636.38;10376866;28;20062;-72
2022/10/13 11:25:40;;;;;;;31.83;20.17;;;;;;;16.49;65.71;100613.00;10387589;28;19926;-71
2022/10/13 11:30:46;;;;;;;33.97;18.85;;;;;;;16.65;65.62;100592.75;10370843;28;20061;-72
2022/10/13 11:35:48;;;;;;;30.33;17.75;;;;;;;16.94;64.90;100591.50;10396886;28;20527;-71
2022/10/13 11:41:19;;;;;;;32.70;19.40;;;;;;;16.62;65.41;100576.88;10380355;28;20417;-70
2022/10/13 11:46:58;;;;;;;32.60;20.17;;;;;;;16.87;64.60;100573.53;10402433;28;20045;-71
2022/10/13 11:52:09;;;;;;;34.38;19.13;;;;;;;16.98;64.44;100572.88;10380049;28;20049;-70
2022/10/13 11:57:22;;;;;;;34.85;19.40;;;;;;;17.09;64.30;100561.34;10371675;28;20063;-71
2022/10/13 12:02:26;;;;;;;30.63;17.70;;;;;;;17.08;64.04;100546.13;10391175;28;20057;-72
2022/10/13 12:07:34;;;;;;;33.20;17.50;;;;;;;17.07;64.20;100547.16;10403506;28;20053;-70
2022/10/13 12:12:36;;;;;;;36.28;17.60;;;;;;;17.19;63.97;100555.47;10388410;28;20065;-69
2022/10/13 12:17:37;;;;;;;34.78;17.25;;;;;;;17.19;64.14;100564.44;10402808;28;20073;-73
2022/10/13 12:22:46;;;;;;;31.77;16.55;;;;;;;17.24;63.60;100556.50;10372030;28;20145;-68
2022/10/13 12:27:51;;;;;;;30.83;14.80;;;;;;;17.14;64.17;100555.28;10392272;28;20053;-70
2022/10/13 12:32:55;;;;;;;25.40;13.70;;;;;;;17.15;64.18;100546.91;10390999;28;20049;-70
2022/10/13 12:38:00;;;;;;;28.50;14.77;;;;;;;17.10;64.28;100545.88;10362082;28;20046;-70
2022/10/13 12:43:03;;;;;;;26.30;15.15;;;;;;;17.19;63.96;100539.19;10370575;28;20084;-70
2022/10/13 12:48:05;;;;;;;27.02;13.23;;;;;;;17.15;64.27;100549.63;10351863;28;20056;-68
2022/10/13 12:53:07;;;;;;;26.15;13.70;;;;;;;17.23;64.27;100537.69;10356289;28;20132;-72
2022/10/13 12:58:18;;;;;;;26.60;13.27;;;;;;;17.28;64.12;100523.47;10365397;28;20489;-69
2022/10/13 13:03:24;;;;;;;27.58;15.23;;;;;;;17.32;64.00;100520.09;10361497;28;20056;-70
2022/10/13 13:08:28;;;;;;;29.25;14.15;;;;;;;17.41;63.78;100509.81;10368921;28;20054;-68
2022/10/13 13:13:30;;;;;;;29.38;15.18;;;;;;;17.44;63.82;100518.38;10368193;28;20058;-70
2022/10/13 13:18:38;;;;;;;34.50;16.08;;;;;;;17.36;63.92;100515.09;10376762;28;20142;-70
2022/10/13 13:23:40;;;;;;;30.27;15.35;;;;;;;17.36;64.05;100496.06;10338445;28;20073;-68
2022/10/13 13:28:44;;;;;;;27.85;14.18;;;;;;;17.49;63.83;100515.00;10361594;28;20057;-71
2022/10/13 13:33:45;;;;;;;25.67;14.70;;;;;;;17.38;64.29;100519.25;10368826;28;20037;-70
2022/10/13 13:38:48;;;;;;;29.30;13.63;;;;;;;17.45;64.20;100509.16;10360430;28;20059;-71
2022/10/13 13:43:49;;;;;;;31.13;15.45;;;;;;;17.41;64.15;100507.91;10364208;28;20092;-73
2022/10/13 13:48:51;;;;;;;24.55;14.10;;;;;;;17.39;64.19;100487.44;10353787;28;20070;-71
2022/10/13 13:53:52;;;;;;;29.17;16.02;;;;;;;17.59;63.72;100509.06;10359882;28;20080;-71
2022/10/13 13:58:54;;;;;;;28.13;15.00;;;;;;;17.41;64.46;100507.09;10370902;28;20057;-72
2022/10/13 14:03:55;;;;;;;25.42;13.88;;;;;;;17.53;64.20;100499.09;10353541;28;20189;-71
2022/10/13 14:08:56;;;;;;;31.35;14.63;;;;;;;17.56;64.11;100502.19;10367978;28;20660;-71
2022/10/13 14:14:00;;;;;;;26.98;14.60;;;;;;;17.43;64.22;100484.06;10342019;28;20390;-71
2022/10/13 14:19:02;;;;;;;27.30;13.90;;;;;;;17.36;64.31;100483.28;10369142;28;20075;-71
2022/10/13 14:24:04;;;;;;;24.83;14.32;;;;;;;17.28;64.63;100485.41;10368196;28;20058;-71
2022/10/13 14:29:05;;;;;;;26.67;14.52;;;;;;;17.17;64.86;100471.47;10371798;28;20074;-72
2022/10/13 14:34:07;;;;;;;26.63;16.00;;;;;;;17.37;64.02;100456.94;10350776;28;20134;-70
2022/10/13 14:39:08;;;;;;;26.35;13.82;;;;;;;17.45;64.26;100473.81;10364157;28;20088;-72
2022/10/13 14:44:12;;;;;;;24.63;15.57;;;;;;;17.33;64.86;100474.75;10366505;28;20053;-71
2022/10/13 14:49:13;;;;;;;31.58;14.77;;;;;;;17.25;65.02;100482.09;10354695;28;20059;-71
2022/10/13 14:54:16;;;;;;;25.17;14.57;;;;;;;17.38;64.81;100480.38;10375602;28;20049;-71
2022/10/13 14:59:17;;;;;;;21.35;14.07;;;;;;;17.36;64.90;100472.44;10373551;28;20089;-74
2022/10/13 15:04:19;;;;;;;24.83;13.18;;;;;;;17.52;64.62;100464.81;10365743;28;20127;-72
2022/10/13 15:09:20;;;;;;;23.85;13.27;;;;;;;17.54;64.39;100471.69;10368354;28;20512;-70
2022/10/13 15:14:43;;;;;;;26.60;12.25;;;;;;;17.55;64.05;100467.91;10358119;28;20049;-75
2022/10/13 15:19:45;;;;;;;24.80;14.52;;;;;;;17.54;64.47;100462.72;10366493;28;20158;-74
2022/10/13 15:24:47;;;;;;;25.88;13.05;;;;;;;17.58;64.25;100464.75;10378682;28;20065;-69
2022/10/13 15:29:48;;;;;;;19.83;12.88;;;;;;;17.61;64.17;100469.78;10370378;28;20046;-71
2022/10/13 15:34:50;;;;;;;27.70;14.15;;;;;;;17.59;64.10;100462.88;10376960;28;20077;-71
2022/10/13 15:39:51;;;;;;;25.38;14.35;;;;;;;17.66;64.12;100463.66;10372724;28;20137;-71
2022/10/13 15:44:57;;;;;;;27.43;13.23;;;;;;;17.53;64.47;100456.41;10372471;28;20050;-71
2022/10/13 15:50:14;;;;;;;29.30;13.93;;;;;;;17.60;64.23;100456.41;10376292;28;20291;-68
2022/10/13 15:55:16;;;;;;;26.65;13.77;;;;;;;17.52;64.50;100448.50;10368087;28;20688;-71
2022/10/13 16:00:18;;;;;;;23.83;13.55;;;;;;;17.44;64.61;100463.19;10374874;28;20076;-72
2022/10/13 16:05:20;;;;;;;29.00;15.38;;;;;;;17.30;65.11;100464.28;10374076;28;20084;-70
2022/10/13 16:10:21;;;;;;;23.90;14.00;;;;;;;17.18;65.60;100459.56;10365601;28;20050;-72
2022/10/13 16:15:23;;;;;;;26.25;14.18;;;;;;;17.13;65.57;100450.41;10373820;28;20041;-71
2022/10/13 16:20:25;;;;;;;24.08;12.90;;;;;;;17.09;65.63;100460.03;10382918;28;20107;-74
2022/10/13 16:25:26;;;;;;;26.40;14.77;;;;;;;17.04;66.19;100461.50;10391650;28;20054;-70
2022/10/13 16:30:29;;;;;;;19.27;12.65;;;;;;;16.95;66.46;100454.66;10401663;28;20042;-71
2022/10/13 16:35:30;;;;;;;23.90;15.32;;;;;;;16.90;66.71;100454.44;10394551;28;20030;-69
2022/10/13 16:40:32;;;;;;;29.25;14.82;;;;;;;16.94;66.74;100460.28;10321784;23;20110;-90
2022/10/13 16:45:33;;;;;;;26.10;16.08;;;;;;;16.96;66.76;100455.47;10289132;28;20054;-90
2022/10/13 16:50:55;;;;;;;23.05;14.60;;;;;;;16.95;66.82;100456.53;10275039;28;20069;-90
2022/10/13 16:55:58;;;;;;;23.58;14.43;;;;;;;16.83;67.45;100453.66;10274906;28;20051;-90
2022/10/13 17:01:08;;;;;;;24.75;15.23;;;;;;;16.68;68.14;100453.06;10265237;28;20046;-90
2022/10/13 17:06:11;;;;;;;29.00;16.67;;;;;;;16.60;68.75;100456.81;10294060;28;20070;-90
2022/10/13 17:11:18;;;;;;;32.63;17.33;;;;;;;16.56;68.68;100461.03;10275160;28;20130;-90
2022/10/13 17:22:35;;;;;;;33.83;18.85;;;;;;;16.47;69.29;100457.72;10278040;28;20055;-90
2022/10/13 17:27:37;;;;;;;29.50;18.83;;;;;;;16.43;69.24;100457.28;10265908;28;20034;-91
2022/10/13 17:32:38;;;;;;;36.20;19.70;;;;;;;16.43;69.54;100461.91;10291334;28;20071;-92
2022/10/13 17:37:40;;;;;;;38.85;21.67;;;;;;;16.46;69.54;100451.44;10272989;28;20129;-91
2022/10/13 17:42:44;;;;;;;40.85;22.02;;;;;;;16.50;69.60;100451.84;10337524;28;20054;-91
2022/10/13 17:47:50;;;;;;;38.45;24.63;;;;;;;16.54;69.38;100454.97;10319811;28;20062;-90
2022/10/13 17:52:52;;;;;;;44.50;24.27;;;;;;;16.54;69.18;100461.22;10310933;28;20081;-90
2022/10/13 17:57:55;;;;;;;45.22;25.40;;;;;;;16.50;69.98;100459.16;10336721;28;20142;-92
2022/10/13 18:02:57;;;;;;;40.45;24.95;;;;;;;16.51;70.01;100452.66;10302023;28;20046;-92
2022/10/13 18:08:00;;;;;;;45.70;26.73;;;;;;;16.57;70.17;100449.97;10301940;28;20096;-92
2022/10/13 18:13:02;;;;;;;46.60;25.10;;;;;;;16.63;70.16;100446.38;10283948;28;20046;-92
2022/10/13 18:18:04;;;;;;;44.22;24.80;;;;;;;16.64;70.30;100441.78;10308179;28;20038;-93
2022/10/13 18:23:08;;;;;;;46.92;27.58;;;;;;;16.61;70.47;100444.94;10317505;28;20070;-92
2022/10/13 18:28:11;;;;;;;49.85;27.23;;;;;;;16.58;70.64;100450.78;10314245;28;20061;-93
2022/10/13 18:39:27;;;;;;;49.80;27.25;;;;;;;16.55;70.96;100446.63;10200568;28;20046;-92
2022/10/13 18:44:34;;;;;;;50.92;28.10;;;;;;;16.48;71.47;100439.53;10189784;29;20065;-92
2022/10/13 18:49:58;;;;;;;59.75;29.40;;;;;;;16.51;71.16;100437.25;10191971;29;20558;-92
2022/10/13 18:55:12;;;;;;;52.80;29.67;;;;;;;16.40;71.63;100444.13;10291293;23;20056;-62
2022/10/13 19:00:14;;;;;;;60.28;31.17;;;;;;;16.34;72.11;100449.59;10375968;28;20042;-67
2022/10/13 19:05:15;;;;;;;57.47;29.90;;;;;;;16.25;72.25;100446.25;10343619;28;20064;-63
2022/10/13 19:10:16;;;;;;;59.50;31.05;;;;;;;16.22;72.47;100442.09;10345351;28;20049;-64
2022/10/13 19:15:18;;;;;;;59.30;32.65;;;;;;;16.30;72.54;100438.31;10361795;28;20145;-63
2022/10/13 19:20:19;;;;;;;65.82;32.38;;;;;;;16.30;72.53;100442.91;10364173;28;20053;-63
2022/10/13 19:25:21;;;;;;;60.88;29.38;;;;;;;16.26;72.61;100439.78;10364299;28;20062;-64
2022/10/13 19:30:25;;;;;;;58.30;31.15;;;;;;;16.26;72.85;100440.63;10366791;28;20129;-61
2022/10/13 19:35:26;;;;;;;62.28;32.85;;;;;;;16.25;73.05;100438.97;10357612;28;20152;-62
2022/10/13 19:40:28;;;;;;;66.95;31.80;;;;;;;16.23;73.35;100437.50;10365763;28;20097;-64
2022/10/13 19:45:30;;;;;;;58.88;30.77;;;;;;;16.28;73.28;100442.31;10350449;28;20046;-61
2022/10/13 19:50:32;;;;;;;59.15;29.08;;;;;;;16.26;73.23;100443.34;10354822;28;20172;-60
2022/10/13 19:55:41;;;;;;;55.38;28.55;;;;;;;16.27;73.27;100455.00;10352924;28;20076;-59
2022/10/13 20:00:44;;;;;;;58.88;28.38;;;;;;;16.28;73.56;100442.31;10336367;28;20066;-60
2022/10/13 20:05:45;;;;;;;58.58;29.08;;;;;;;16.38;73.37;100435.38;10352175;28;20396;-60
2022/10/13 20:10:47;;;;;;;57.70;29.30;;;;;;;16.34;73.36;100436.03;10344593;28;20165;-62
2022/10/13 20:15:48;;;;;;;64.43;30.45;;;;;;;16.39;73.06;100439.78;10332385;28;20140;-61
2022/10/13 20:20:50;;;;;;;62.40;28.60;;;;;;;16.41;73.09;100428.69;10356010;28;20051;-62
2022/10/13 20:25:52;;;;;;;66.18;29.52;;;;;;;16.35;73.25;100435.81;10339714;28;20112;-63
2022/10/13 20:30:53;;;;;;;69.60;28.50;;;;;;;16.23;73.87;100440.19;10357597;28;20085;-62
2022/10/13 20:36:02;;;;;;;64.75;30.08;;;;;;;16.25;73.73;100448.97;10358052;28;20082;-62
2022/10/13 20:41:19;;;;;;;60.38;27.95;;;;;;;16.21;73.93;100443.16;10355790;28;20384;-62
2022/10/13 20:46:22;;;;;;;55.90;27.13;;;;;;;16.11;74.04;100450.03;10350999;28;20129;-64
2022/10/13 20:51:24;;;;;;;41.15;21.67;;;;;;;16.08;74.26;100450.47;10359244;28;20051;-61
2022/10/13 20:56:26;;;;;;;36.65;17.80;;;;;;;16.00;74.18;100449.63;10354622;28;20082;-63
2022/10/13 21:01:27;;;;;;;35.28;17.50;;;;;;;15.91;74.26;100442.72;10351662;28;20045;-63
2022/10/13 21:06:29;;;;;;;28.85;16.80;;;;;;;15.96;73.78;100434.81;10356125;28;20053;-60
2022/10/13 21:11:30;;;;;;;30.40;16.38;;;;;;;15.91;74.07;100441.91;10342304;28;20078;-60
2022/10/13 21:16:32;;;;;;;30.27;17.05;;;;;;;15.95;73.80;100435.03;10349743;28;20466;-61
2022/10/13 21:21:34;;;;;;;24.92;15.45;;;;;;;15.98;73.32;100431.91;10349678;28;20103;-63
2022/10/13 21:26:37;;;;;;;29.00;16.65;;;;;;;15.97;73.29;100436.47;10353317;28;20073;-63
2022/10/13 21:31:38;;;;;;;30.77;16.63;;;;;;;15.96;73.51;100437.53;10351366;28;20070;-61
2022/10/13 21:36:43;;;;;;;29.77;16.45;;;;;;;15.98;73.28;100440.88;10352346;28;20529;-63
2022/10/13 21:41:44;;;;;;;27.33;16.00;;;;;;;16.00;73.24;100443.38;10344679;28;20082;-60
2022/10/13 21:46:45;;;;;;;29.55;15.48;;;;;;;16.00;73.03;100446.91;10336937;28;20128;-61
2022/10/13 21:51:47;;;;;;;32.72;16.38;;;;;;;16.07;72.99;100446.91;10347681;28;20121;-62
2022/10/13 21:56:48;;;;;;;28.52;16.40;;;;;;;16.04;72.90;100450.03;10350612;28;20076;-61
2022/10/13 22:01:50;;;;;;;38.08;18.65;;;;;;;15.88;73.53;100448.59;10339177;28;20137;-63
2022/10/13 22:06:51;;;;;;;35.15;18.98;;;;;;;15.92;73.44;100447.13;10343832;28;20078;-63
2022/10/13 22:11:52;;;;;;;43.50;19.92;;;;;;;15.91;73.45;100444.63;10349770;28;20148;-65
2022/10/13 22:16:56;;;;;;;32.97;19.50;;;;;;;15.93;73.35;100440.66;10348392;28;20132;-65
2022/10/13 22:21:58;;;;;;;35.75;19.30;;;;;;;15.95;73.29;100448.56;10347494;28;20182;-60
2022/10/13 22:26:59;;;;;;;37.08;19.25;;;;;;;15.96;73.29;100436.69;10349770;28;20159;-61
2022/10/13 22:32:01;;;;;;;34.03;19.40;;;;;;;15.86;73.61;100437.13;10315787;28;20161;-60
2022/10/13 22:37:02;;;;;;;33.85;19.02;;;;;;;15.86;73.17;100432.53;10352812;28;20057;-61
2022/10/13 22:42:03;;;;;;;36.80;18.67;;;;;;;15.91;73.65;100437.31;10354737;28;20061;-61
2022/10/13 22:47:05;;;;;;;32.13;19.38;;;;;;;15.89;73.50;100422.31;10353648;28;20057;-65
2022/10/13 22:52:07;;;;;;;39.22;19.58;;;;;;;15.87;73.56;100425.22;10349745;28;20599;-63
2022/10/13 22:57:08;;;;;;;37.13;20.50;;;;;;;15.87;73.81;100425.22;10341913;28;20465;-61
2022/10/13 23:02:10;;;;;;;36.60;20.17;;;;;;;15.86;73.61;100424.41;10340082;28;20078;-61
2022/10/13 23:07:11;;;;;;;36.45;19.50;;;;;;;15.91;73.53;100429.19;10353190;28;20073;-64
2022/10/13 23:12:12;;;;;;;39.17;20.00;;;;;;;15.94;73.52;100422.53;10353357;28;20101;-61
2022/10/13 23:17:14;;;;;;;43.58;20.25;;;;;;;15.94;73.43;100422.53;10355758;28;20124;-64
2022/10/13 23:22:15;;;;;;;36.25;18.85;;;;;;;15.92;73.66;100427.31;10356289;28;20109;-62
2022/10/13 23:27:17;;;;;;;38.33;20.08;;;;;;;15.88;73.54;100420.63;10352958;28;20062;-62
2022/10/13 23:32:18;;;;;;;40.15;20.17;;;;;;;15.93;73.61;100420.84;10356991;28;20104;-64
2022/10/13 23:37:20;;;;;;;38.58;20.17;;;;;;;16.01;73.46;100421.44;10355835;28;20073;-62
2022/10/13 23:42:22;;;;;;;41.90;20.73;;;;;;;16.04;73.15;100418.34;10350931;28;20046;-60
2022/10/13 23:47:23;;;;;;;49.75;21.88;;;;;;;16.02;73.43;100419.59;10340383;28;20062;-60
2022/10/13 23:52:24;;;;;;;46.58;21.63;;;;;;;16.09;73.22;100427.72;10344058;28;20049;-63
2022/10/13 23:57:28;;;;;;;44.88;22.45;;;;;;;16.02;73.50;100420.41;10338039;28;20458;-63
